sensor_id;sensor_type;location;lat;lon;timestamp;temperature;humidity
47434;SHT31;33184;48.774;8.918;2023-04-19T00:04:43;8.93;83.15
47434;SHT31;33184;48.774;8.918;2023-04-19T00:10:07;8.84;83.77
47434;SHT31;33184;48.774;8.918;2023-04-19T00:15:27;8.81;83.72
47434;SHT31;33184;48.774;8.918;2023-04-19T00:20:48;8.78;84.20
47434;SHT31;33184;48.774;8.918;2023-04-19T00:26:10;8.71;84.30
47434;SHT31;33184;48.774;8.918;2023-04-19T00:31:31;8.67;84.36
47434;SHT31;33184;48.774;8.918;2023-04-19T00:36:52;8.67;84.49
47434;SHT31;33184;48.774;8.918;2023-04-19T00:42:12;8.60;84.37
47434;SHT31;33184;48.774;8.918;2023-04-19T00:47:34;8.61;84.69
47434;SHT31;33184;48.774;8.918;2023-04-19T00:52:55;8.58;84.85
47434;SHT31;33184;48.774;8.918;2023-04-19T00:58:17;8.52;84.64
47434;SHT31;33184;48.774;8.918;2023-04-19T01:03:38;8.50;84.88
47434;SHT31;33184;48.774;8.918;2023-04-19T01:08:59;8.47;84.89
47434;SHT31;33184;48.774;8.918;2023-04-19T01:14:19;8.45;85.11
47434;SHT31;33184;48.774;8.918;2023-04-19T01:19:40;8.47;84.84
47434;SHT31;33184;48.774;8.918;2023-04-19T01:25:01;8.41;85.46
47434;SHT31;33184;48.774;8.918;2023-04-19T01:30:23;8.36;85.11
47434;SHT31;33184;48.774;8.918;2023-04-19T01:35:44;8.34;85.12
47434;SHT31;33184;48.774;8.918;2023-04-19T01:41:04;8.31;85.31
47434;SHT31;33184;48.774;8.918;2023-04-19T01:46:25;8.33;85.39
47434;SHT31;33184;48.774;8.918;2023-04-19T01:51:46;8.29;85.65
47434;SHT31;33184;48.774;8.918;2023-04-19T01:57:07;8.24;85.55
47434;SHT31;33184;48.774;8.918;2023-04-19T02:02:27;8.26;85.85
47434;SHT31;33184;48.774;8.918;2023-04-19T02:07:48;8.24;85.97
47434;SHT31;33184;48.774;8.918;2023-04-19T02:13:08;8.19;85.87
47434;SHT31;33184;48.774;8.918;2023-04-19T02:18:29;8.05;85.63
47434;SHT31;33184;48.774;8.918;2023-04-19T02:23:50;7.97;85.53
47434;SHT31;33184;48.774;8.918;2023-04-19T02:29:10;7.96;86.25
47434;SHT31;33184;48.774;8.918;2023-04-19T02:34:32;7.95;86.35
47434;SHT31;33184;48.774;8.918;2023-04-19T02:39:53;7.93;86.23
47434;SHT31;33184;48.774;8.918;2023-04-19T02:45:14;7.93;86.37
47434;SHT31;33184;48.774;8.918;2023-04-19T02:50:36;7.85;86.28
47434;SHT31;33184;48.774;8.918;2023-04-19T02:55:56;7.87;86.59
47434;SHT31;33184;48.774;8.918;2023-04-19T03:01:17;7.90;86.53
47434;SHT31;33184;48.774;8.918;2023-04-19T03:06:38;7.83;86.20
47434;SHT31;33184;48.774;8.918;2023-04-19T03:11:58;7.82;86.31
47434;SHT31;33184;48.774;8.918;2023-04-19T03:17:20;7.82;86.31
47434;SHT31;33184;48.774;8.918;2023-04-19T03:22:41;7.72;86.24
47434;SHT31;33184;48.774;8.918;2023-04-19T03:28:03;7.72;86.65
47434;SHT31;33184;48.774;8.918;2023-04-19T03:33:43;7.72;86.74
47434;SHT31;33184;48.774;8.918;2023-04-19T03:39:06;7.70;86.84
47434;SHT31;33184;48.774;8.918;2023-04-19T03:44:32;7.66;86.78
47434;SHT31;33184;48.774;8.918;2023-04-19T03:49:55;7.70;87.24
47434;SHT31;33184;48.774;8.918;2023-04-19T03:55:17;7.72;87.20
47434;SHT31;33184;48.774;8.918;2023-04-19T04:00:38;7.65;86.81
47434;SHT31;33184;48.774;8.918;2023-04-19T04:05:59;7.59;86.90
47434;SHT31;33184;48.774;8.918;2023-04-19T04:11:19;7.54;86.82
47434;SHT31;33184;48.774;8.918;2023-04-19T04:16:42;7.46;87.05
47434;SHT31;33184;48.774;8.918;2023-04-19T04:22:03;7.45;87.70
47434;SHT31;33184;48.774;8.918;2023-04-19T04:27:27;7.44;87.71
47434;SHT31;33184;48.774;8.918;2023-04-19T04:32:48;7.42;87.76
47434;SHT31;33184;48.774;8.918;2023-04-19T04:38:11;7.39;87.42
47434;SHT31;33184;48.774;8.918;2023-04-19T04:43:33;7.49;88.27
47434;SHT31;33184;48.774;8.918;2023-04-19T04:48:55;7.44;87.66
47434;SHT31;33184;48.774;8.918;2023-04-19T04:54:15;7.48;87.58
47434;SHT31;33184;48.774;8.918;2023-04-19T04:59:37;7.52;87.75
47434;SHT31;33184;48.774;8.918;2023-04-19T05:04:57;7.46;87.55
47434;SHT31;33184;48.774;8.918;2023-04-19T05:10:20;7.45;87.23
47434;SHT31;33184;48.774;8.918;2023-04-19T05:15:41;7.48;87.23
47434;SHT31;33184;48.774;8.918;2023-04-19T05:21:03;7.46;86.86
47434;SHT31;33184;48.774;8.918;2023-04-19T05:26:26;7.45;87.46
47434;SHT31;33184;48.774;8.918;2023-04-19T05:31:48;7.45;87.53
47434;SHT31;33184;48.774;8.918;2023-04-19T05:37:16;7.46;87.70
47434;SHT31;33184;48.774;8.918;2023-04-19T05:42:37;7.46;87.54
47434;SHT31;33184;48.774;8.918;2023-04-19T05:47:58;7.45;87.34
47434;SHT31;33184;48.774;8.918;2023-04-19T05:53:30;7.49;87.36
47434;SHT31;33184;48.774;8.918;2023-04-19T05:58:51;7.56;87.22
47434;SHT31;33184;48.774;8.918;2023-04-19T06:04:12;7.63;86.91
47434;SHT31;33184;48.774;8.918;2023-04-19T06:09:32;7.67;86.59
47434;SHT31;33184;48.774;8.918;2023-04-19T06:14:53;7.72;86.29
47434;SHT31;33184;48.774;8.918;2023-04-19T06:20:14;7.79;86.34
47434;SHT31;33184;48.774;8.918;2023-04-19T06:25:34;7.79;86.07
47434;SHT31;33184;48.774;8.918;2023-04-19T06:30:55;7.90;86.10
47434;SHT31;33184;48.774;8.918;2023-04-19T06:36:16;7.96;85.60
47434;SHT31;33184;48.774;8.918;2023-04-19T06:41:36;8.03;85.25
47434;SHT31;33184;48.774;8.918;2023-04-19T06:46:57;8.14;84.87
47434;SHT31;33184;48.774;8.918;2023-04-19T06:52:17;8.30;84.62
47434;SHT31;33184;48.774;8.918;2023-04-19T06:57:38;8.33;84.57
47434;SHT31;33184;48.774;8.918;2023-04-19T07:02:58;8.40;84.24
47434;SHT31;33184;48.774;8.918;2023-04-19T07:08:19;8.60;83.82
47434;SHT31;33184;48.774;8.918;2023-04-19T07:13:40;8.69;83.21
47434;SHT31;33184;48.774;8.918;2023-04-19T07:19:00;8.67;83.01
47434;SHT31;33184;48.774;8.918;2023-04-19T07:24:21;8.72;82.68
47434;SHT31;33184;48.774;8.918;2023-04-19T07:29:42;8.81;82.62
47434;SHT31;33184;48.774;8.918;2023-04-19T07:35:02;8.89;82.29
47434;SHT31;33184;48.774;8.918;2023-04-19T07:40:23;8.92;81.50
47434;SHT31;33184;48.774;8.918;2023-04-19T07:45:43;8.96;82.16
47434;SHT31;33184;48.774;8.918;2023-04-19T07:51:11;9.02;81.94
47434;SHT31;33184;48.774;8.918;2023-04-19T07:56:32;9.18;81.19
47434;SHT31;33184;48.774;8.918;2023-04-19T08:01:53;9.23;79.98
47434;SHT31;33184;48.774;8.918;2023-04-19T08:07:13;9.19;80.43
47434;SHT31;33184;48.774;8.918;2023-04-19T08:12:34;9.50;80.46
47434;SHT31;33184;48.774;8.918;2023-04-19T08:17:55;9.68;79.55
47434;SHT31;33184;48.774;8.918;2023-04-19T08:23:16;9.97;79.36
47434;SHT31;33184;48.774;8.918;2023-04-19T08:28:36;10.11;77.91
47434;SHT31;33184;48.774;8.918;2023-04-19T08:33:57;10.29;77.52
47434;SHT31;33184;48.774;8.918;2023-04-19T08:39:19;10.35;75.65
47434;SHT31;33184;48.774;8.918;2023-04-19T08:44:40;10.55;75.65
47434;SHT31;33184;48.774;8.918;2023-04-19T08:50:03;10.55;75.01
47434;SHT31;33184;48.774;8.918;2023-04-19T08:55:26;10.66;72.40
47434;SHT31;33184;48.774;8.918;2023-04-19T09:00:47;10.73;72.63
47434;SHT31;33184;48.774;8.918;2023-04-19T09:06:07;10.65;72.43
47434;SHT31;33184;48.774;8.918;2023-04-19T09:11:37;10.72;72.64
47434;SHT31;33184;48.774;8.918;2023-04-19T09:17:11;10.93;72.69
47434;SHT31;33184;48.774;8.918;2023-04-19T09:22:33;10.94;72.99
47434;SHT31;33184;48.774;8.918;2023-04-19T09:28:07;11.13;72.34
47434;SHT31;33184;48.774;8.918;2023-04-19T09:33:33;11.28;72.99
47434;SHT31;33184;48.774;8.918;2023-04-19T09:38:53;11.31;72.37
47434;SHT31;33184;48.774;8.918;2023-04-19T09:44:14;11.17;72.30
47434;SHT31;33184;48.774;8.918;2023-04-19T09:49:34;11.20;72.81
47434;SHT31;33184;48.774;8.918;2023-04-19T09:54:57;11.11;71.03
47434;SHT31;33184;48.774;8.918;2023-04-19T10:00:20;11.25;70.02
47434;SHT31;33184;48.774;8.918;2023-04-19T10:05:42;11.59;69.80
47434;SHT31;33184;48.774;8.918;2023-04-19T10:11:03;12.16;70.01
47434;SHT31;33184;48.774;8.918;2023-04-19T10:16:25;12.10;68.08
47434;SHT31;33184;48.774;8.918;2023-04-19T10:21:47;11.71;69.16
47434;SHT31;33184;48.774;8.918;2023-04-19T10:27:09;11.65;70.89
47434;SHT31;33184;48.774;8.918;2023-04-19T10:32:42;11.25;71.12
47434;SHT31;33184;48.774;8.918;2023-04-19T10:38:08;11.18;72.05
47434;SHT31;33184;48.774;8.918;2023-04-19T10:43:29;11.11;71.61
47434;SHT31;33184;48.774;8.918;2023-04-19T10:48:52;11.31;70.88
47434;SHT31;33184;48.774;8.918;2023-04-19T10:54:30;11.40;70.40
47434;SHT31;33184;48.774;8.918;2023-04-19T11:00:20;11.24;69.92
47434;SHT31;33184;48.774;8.918;2023-04-19T11:06:18;11.21;71.35
47434;SHT31;33184;48.774;8.918;2023-04-19T11:11:40;11.32;71.52
47434;SHT31;33184;48.774;8.918;2023-04-19T11:17:03;11.14;71.34
47434;SHT31;33184;48.774;8.918;2023-04-19T11:22:40;10.93;72.15
47434;SHT31;33184;48.774;8.918;2023-04-19T11:28:01;10.83;72.75
47434;SHT31;33184;48.774;8.918;2023-04-19T11:33:22;10.76;73.12
47434;SHT31;33184;48.774;8.918;2023-04-19T11:38:48;10.66;73.86
47434;SHT31;33184;48.774;8.918;2023-04-19T11:44:13;10.49;75.87
47434;SHT31;33184;48.774;8.918;2023-04-19T11:49:33;10.39;76.37
47434;SHT31;33184;48.774;8.918;2023-04-19T11:54:54;10.21;76.91
47434;SHT31;33184;48.774;8.918;2023-04-19T12:00:15;10.18;77.65
47434;SHT31;33184;48.774;8.918;2023-04-19T12:05:36;10.14;77.60
47434;SHT31;33184;48.774;8.918;2023-04-19T12:10:57;10.09;77.80
47434;SHT31;33184;48.774;8.918;2023-04-19T12:16:26;10.01;78.18
47434;SHT31;33184;48.774;8.918;2023-04-19T12:21:47;9.81;80.19
47434;SHT31;33184;48.774;8.918;2023-04-19T12:27:08;9.73;81.07
47434;SHT31;33184;48.774;8.918;2023-04-19T12:32:29;9.80;82.84
47434;SHT31;33184;48.774;8.918;2023-04-19T12:37:51;9.54;83.42
47434;SHT31;33184;48.774;8.918;2023-04-19T12:43:12;9.39;85.49
47434;SHT31;33184;48.774;8.918;2023-04-19T12:48:33;9.30;85.77
47434;SHT31;33184;48.774;8.918;2023-04-19T12:53:53;9.18;85.52
47434;SHT31;33184;48.774;8.918;2023-04-19T12:59:14;9.05;87.73
47434;SHT31;33184;48.774;8.918;2023-04-19T13:04:35;8.82;87.46
47434;SHT31;33184;48.774;8.918;2023-04-19T13:09:55;8.71;87.40
47434;SHT31;33184;48.774;8.918;2023-04-19T13:15:16;8.51;86.67
47434;SHT31;33184;48.774;8.918;2023-04-19T13:20:37;8.45;86.49
47434;SHT31;33184;48.774;8.918;2023-04-19T13:25:57;8.50;86.22
47434;SHT31;33184;48.774;8.918;2023-04-19T13:31:18;8.61;86.19
47434;SHT31;33184;48.774;8.918;2023-04-19T13:36:38;8.65;85.71
47434;SHT31;33184;48.774;8.918;2023-04-19T13:42:00;8.84;86.43
47434;SHT31;33184;48.774;8.918;2023-04-19T13:47:21;8.96;86.12
47434;SHT31;33184;48.774;8.918;2023-04-19T13:52:41;8.92;85.50
47434;SHT31;33184;48.774;8.918;2023-04-19T13:58:02;8.87;85.29
47434;SHT31;33184;48.774;8.918;2023-04-19T14:03:23;8.75;85.14
47434;SHT31;33184;48.774;8.918;2023-04-19T14:08:43;8.93;86.57
47434;SHT31;33184;48.774;8.918;2023-04-19T14:14:04;9.12;86.17
47434;SHT31;33184;48.774;8.918;2023-04-19T14:19:24;9.11;85.48
47434;SHT31;33184;48.774;8.918;2023-04-19T14:24:45;9.22;85.09
47434;SHT31;33184;48.774;8.918;2023-04-19T14:30:06;9.27;85.18
47434;SHT31;33184;48.774;8.918;2023-04-19T14:35:27;9.19;84.52
47434;SHT31;33184;48.774;8.918;2023-04-19T14:40:48;9.46;84.99
47434;SHT31;33184;48.774;8.918;2023-04-19T14:46:08;9.73;84.36
47434;SHT31;33184;48.774;8.918;2023-04-19T14:51:29;9.86;83.50
47434;SHT31;33184;48.774;8.918;2023-04-19T14:56:50;9.97;82.76
47434;SHT31;33184;48.774;8.918;2023-04-19T15:02:12;10.00;82.39
47434;SHT31;33184;48.774;8.918;2023-04-19T15:07:32;10.08;82.08
47434;SHT31;33184;48.774;8.918;2023-04-19T15:12:53;10.17;82.52
47434;SHT31;33184;48.774;8.918;2023-04-19T15:18:14;10.05;81.71
47434;SHT31;33184;48.774;8.918;2023-04-19T15:23:35;9.93;81.49
47434;SHT31;33184;48.774;8.918;2023-04-19T15:28:56;10.12;81.86
47434;SHT31;33184;48.774;8.918;2023-04-19T15:34:16;10.29;81.46
47434;SHT31;33184;48.774;8.918;2023-04-19T15:39:37;10.45;80.50
47434;SHT31;33184;48.774;8.918;2023-04-19T15:44:57;10.73;79.43
47434;SHT31;33184;48.774;8.918;2023-04-19T15:50:18;11.43;78.15
47434;SHT31;33184;48.774;8.918;2023-04-19T15:55:38;12.03;75.85
47434;SHT31;33184;48.774;8.918;2023-04-19T16:01:00;12.60;74.68
47434;SHT31;33184;48.774;8.918;2023-04-19T16:06:21;12.49;73.63
47434;SHT31;33184;48.774;8.918;2023-04-19T16:11:42;12.03;72.17
47434;SHT31;33184;48.774;8.918;2023-04-19T16:17:02;11.77;75.71
47434;SHT31;33184;48.774;8.918;2023-04-19T16:22:23;12.26;75.00
47434;SHT31;33184;48.774;8.918;2023-04-19T16:27:44;12.10;73.88
47434;SHT31;33184;48.774;8.918;2023-04-19T16:33:05;12.42;74.02
47434;SHT31;33184;48.774;8.918;2023-04-19T16:38:26;12.44;74.02
47434;SHT31;33184;48.774;8.918;2023-04-19T16:43:46;12.20;73.33
47434;SHT31;33184;48.774;8.918;2023-04-19T16:49:07;11.59;74.34
47434;SHT31;33184;48.774;8.918;2023-04-19T16:54:28;11.25;75.26
47434;SHT31;33184;48.774;8.918;2023-04-19T16:59:48;11.11;75.73
47434;SHT31;33184;48.774;8.918;2023-04-19T17:05:09;10.89;76.28
47434;SHT31;33184;48.774;8.918;2023-04-19T17:10:31;10.86;76.41
47434;SHT31;33184;48.774;8.918;2023-04-19T17:15:52;10.76;75.54
47434;SHT31;33184;48.774;8.918;2023-04-19T17:21:12;10.69;76.71
47434;SHT31;33184;48.774;8.918;2023-04-19T17:26:35;10.59;75.00
47434;SHT31;33184;48.774;8.918;2023-04-19T17:31:55;10.35;67.82
47434;SHT31;33184;48.774;8.918;2023-04-19T17:37:16;10.25;62.22
47434;SHT31;33184;48.774;8.918;2023-04-19T17:42:36;10.18;61.27
47434;SHT31;33184;48.774;8.918;2023-04-19T17:47:57;10.14;54.41
47434;SHT31;33184;48.774;8.918;2023-04-19T17:53:17;10.08;58.00
47434;SHT31;33184;48.774;8.918;2023-04-19T17:58:38;10.02;58.08
47434;SHT31;33184;48.774;8.918;2023-04-19T18:03:59;9.88;59.07
47434;SHT31;33184;48.774;8.918;2023-04-19T18:09:19;9.75;57.80
47434;SHT31;33184;48.774;8.918;2023-04-19T18:14:40;9.63;54.31
47434;SHT31;33184;48.774;8.918;2023-04-19T18:20:00;9.51;52.46
47434;SHT31;33184;48.774;8.918;2023-04-19T18:25:23;9.37;54.63
47434;SHT31;33184;48.774;8.918;2023-04-19T18:30:44;9.30;55.14
47434;SHT31;33184;48.774;8.918;2023-04-19T18:36:04;9.19;54.90
47434;SHT31;33184;48.774;8.918;2023-04-19T18:41:25;9.09;56.07
47434;SHT31;33184;48.774;8.918;2023-04-19T18:46:46;9.05;54.59
47434;SHT31;33184;48.774;8.918;2023-04-19T18:52:06;8.93;55.61
47434;SHT31;33184;48.774;8.918;2023-04-19T18:57:27;8.82;59.02
47434;SHT31;33184;48.774;8.918;2023-04-19T19:02:47;8.74;56.72
47434;SHT31;33184;48.774;8.918;2023-04-19T19:08:08;8.60;57.80
47434;SHT31;33184;48.774;8.918;2023-04-19T19:13:28;8.51;57.32
47434;SHT31;33184;48.774;8.918;2023-04-19T19:18:49;8.33;58.12
47434;SHT31;33184;48.774;8.918;2023-04-19T19:24:10;8.21;57.52
47434;SHT31;33184;48.774;8.918;2023-04-19T19:29:31;8.10;57.33
47434;SHT31;33184;48.774;8.918;2023-04-19T19:34:51;7.99;58.12
47434;SHT31;33184;48.774;8.918;2023-04-19T19:40:12;7.87;58.30
47434;SHT31;33184;48.774;8.918;2023-04-19T19:45:32;7.79;58.67
47434;SHT31;33184;48.774;8.918;2023-04-19T19:50:53;7.67;59.59
47434;SHT31;33184;48.774;8.918;2023-04-19T19:56:14;7.62;59.44
47434;SHT31;33184;48.774;8.918;2023-04-19T20:01:35;7.52;60.00
47434;SHT31;33184;48.774;8.918;2023-04-19T20:06:55;7.46;59.89
47434;SHT31;33184;48.774;8.918;2023-04-19T20:12:16;7.39;59.44
47434;SHT31;33184;48.774;8.918;2023-04-19T20:17:39;7.30;59.37
47434;SHT31;33184;48.774;8.918;2023-04-19T20:23:00;7.18;60.27
47434;SHT31;33184;48.774;8.918;2023-04-19T20:28:20;7.11;60.19
47434;SHT31;33184;48.774;8.918;2023-04-19T20:33:41;7.04;60.71
47434;SHT31;33184;48.774;8.918;2023-04-19T20:39:01;6.97;61.12
47434;SHT31;33184;48.774;8.918;2023-04-19T20:51:04;6.77;61.45
47434;SHT31;33184;48.774;8.918;2023-04-19T20:56:24;6.70;61.56
47434;SHT31;33184;48.774;8.918;2023-04-19T21:01:45;6.62;61.75
47434;SHT31;33184;48.774;8.918;2023-04-19T21:07:05;6.45;62.48
47434;SHT31;33184;48.774;8.918;2023-04-19T21:12:26;6.25;62.77
47434;SHT31;33184;48.774;8.918;2023-04-19T21:17:46;6.08;63.22
47434;SHT31;33184;48.774;8.918;2023-04-19T21:23:07;5.98;63.46
47434;SHT31;33184;48.774;8.918;2023-04-19T21:28:28;5.95;63.48
47434;SHT31;33184;48.774;8.918;2023-04-19T21:33:48;5.93;63.83
47434;SHT31;33184;48.774;8.918;2023-04-19T21:39:09;5.94;63.62
47434;SHT31;33184;48.774;8.918;2023-04-19T21:44:29;5.91;63.36
47434;SHT31;33184;48.774;8.918;2023-04-19T21:49:50;5.91;63.40
47434;SHT31;33184;48.774;8.918;2023-04-19T21:55:10;5.90;63.58
47434;SHT31;33184;48.774;8.918;2023-04-19T22:00:31;5.90;64.51
47434;SHT31;33184;48.774;8.918;2023-04-19T22:05:51;5.66;66.84
47434;SHT31;33184;48.774;8.918;2023-04-19T22:11:12;5.50;66.50
47434;SHT31;33184;48.774;8.918;2023-04-19T22:16:32;5.48;66.10
47434;SHT31;33184;48.774;8.918;2023-04-19T22:21:54;5.46;65.36
47434;SHT31;33184;48.774;8.918;2023-04-19T22:27:14;5.39;65.84
47434;SHT31;33184;48.774;8.918;2023-04-19T22:32:35;5.33;66.23
47434;SHT31;33184;48.774;8.918;2023-04-19T22:37:55;5.36;66.28
47434;SHT31;33184;48.774;8.918;2023-04-19T22:43:16;5.24;65.86
47434;SHT31;33184;48.774;8.918;2023-04-19T22:48:37;5.18;65.94
47434;SHT31;33184;48.774;8.918;2023-04-19T22:53:57;5.13;66.58
47434;SHT31;33184;48.774;8.918;2023-04-19T22:59:18;4.79;68.40
47434;SHT31;33184;48.774;8.918;2023-04-19T23:04:38;4.62;69.11
47434;SHT31;33184;48.774;8.918;2023-04-19T23:09:59;4.54;69.56
47434;SHT31;33184;48.774;8.918;2023-04-19T23:15:20;4.57;70.16
47434;SHT31;33184;48.774;8.918;2023-04-19T23:20:41;4.60;70.28
47434;SHT31;33184;48.774;8.918;2023-04-19T23:26:02;4.55;71.46
47434;SHT31;33184;48.774;8.918;2023-04-19T23:31:22;4.40;71.22
47434;SHT31;33184;48.774;8.918;2023-04-19T23:36:43;4.23;70.86
47434;SHT31;33184;48.774;8.918;2023-04-19T23:42:03;4.07;71.02
47434;SHT31;33184;48.774;8.918;2023-04-19T23:47:24;4.07;71.76
47434;SHT31;33184;48.774;8.918;2023-04-19T23:52:45;3.89;73.30
47434;SHT31;33184;48.774;8.918;2023-04-19T23:58:05;3.71;72.68
